Time;durP1;ratioP1;P1;durP2;ratioP2;P2;SDS_P1;SDS_P2;PMS_P1;PMS_P2;Temp;Humidity;BMP_temperature;BMP_pressure;BME280_temperature;BME280_humidity;BME280_pressure;Samples;Min_cycle;Max_cycle;Signal;HPM_P1;HPM_P2
2023/09/04 00:02:17;;;;;;;8.43;7.68;;;;;;;17.53;67.58;102648.44;5053296;28;20033;-66
2023/09/04 00:04:42;;;;;;;8.02;7.32;;;;;;;17.54;68.10;102641.72;5053436;28;20036;-66
2023/09/04 00:07:07;;;;;;;7.95;7.25;;;;;;;17.52;67.40;102638.28;5053197;28;20025;-66
2023/09/04 00:09:34;;;;;;;7.97;7.28;;;;;;;17.47;67.91;102644.69;5070048;28;20028;-66
2023/09/04 00:11:59;;;;;;;8.68;7.88;;;;;;;17.42;67.94;102636.19;5064604;28;20827;-67
2023/09/04 00:14:25;;;;;;;8.10;7.30;;;;;;;17.43;67.74;102633.13;5077573;28;20035;-66
2023/09/04 00:16:50;;;;;;;7.93;7.13;;;;;;;17.35;67.80;102636.34;5076978;28;20052;-66
2023/09/04 00:19:17;;;;;;;8.10;7.32;;;;;;;17.34;67.64;102629.03;5072193;28;20123;-66
2023/09/04 00:21:42;;;;;;;7.97;7.22;;;;;;;17.39;67.44;102633.88;5073077;28;20113;-66
2023/09/04 00:24:08;;;;;;;8.02;7.22;;;;;;;17.35;67.44;102636.34;5066135;28;20070;-67
2023/09/04 00:26:33;;;;;;;7.70;7.00;;;;;;;17.33;67.34;102632.97;5056654;28;20365;-66
2023/09/04 00:28:58;;;;;;;8.60;7.72;;;;;;;17.31;67.93;102626.75;5066833;28;20545;-66
2023/09/04 00:31:24;;;;;;;8.07;7.38;;;;;;;17.25;67.37;102627.78;5092363;28;20031;-66
2023/09/04 00:33:49;;;;;;;8.57;7.70;;;;;;;17.23;67.52;102627.19;5092892;28;20035;-66
2023/09/04 00:36:14;;;;;;;9.85;7.93;;;;;;;17.21;67.58;102632.16;5083681;28;20753;-66
2023/09/04 00:38:39;;;;;;;8.63;7.60;;;;;;;17.20;67.37;102627.69;5056978;28;20087;-67
2023/09/04 00:41:05;;;;;;;7.90;7.22;;;;;;;17.11;67.33;102629.22;5054206;28;20024;-67
2023/09/04 00:43:34;;;;;;;8.30;7.50;;;;;;;17.10;67.75;102628.38;5052699;28;20024;-67
2023/09/04 00:46:00;;;;;;;8.60;7.80;;;;;;;17.15;67.61;102621.97;5068077;28;20450;-67
2023/09/04 00:48:25;;;;;;;8.88;8.05;;;;;;;17.17;67.53;102628.19;5072627;28;20071;-67
2023/09/04 00:50:50;;;;;;;8.98;7.93;;;;;;;17.09;67.53;102625.78;5071762;28;20472;-67
2023/09/04 00:53:16;;;;;;;8.68;7.80;;;;;;;17.05;67.42;102636.66;5063970;28;20029;-67
2023/09/04 00:55:42;;;;;;;8.65;7.85;;;;;;;17.04;67.66;102632.16;5067869;28;20048;-67
2023/09/04 00:58:08;;;;;;;8.38;7.43;;;;;;;17.04;67.56;102629.38;5053491;28;20017;-67
2023/09/04 01:00:33;;;;;;;8.25;7.55;;;;;;;16.98;67.54;102630.41;5052490;28;20040;-66
2023/09/04 01:03:02;;;;;;;8.32;7.63;;;;;;;17.03;67.63;102633.28;5052548;28;20491;-67
2023/09/04 01:05:29;;;;;;;9.63;7.43;;;;;;;16.97;67.83;102627.81;5062696;28;20365;-66
2023/09/04 01:07:55;;;;;;;8.70;7.90;;;;;;;16.99;67.60;102625.63;5072043;28;20091;-67
2023/09/04 01:10:21;;;;;;;9.02;8.10;;;;;;;16.95;67.73;102625.28;5070264;28;20028;-66
2023/09/04 01:13:17;;;;;;;10.85;7.95;;;;;;;17.05;67.60;102625.44;5069159;28;20036;-66
2023/09/04 01:15:43;;;;;;;8.18;7.47;;;;;;;16.88;67.69;102622.63;5076878;28;20487;-67
2023/09/04 01:18:09;;;;;;;8.35;7.60;;;;;;;16.92;67.65;102620.19;5092088;28;20054;-66
2023/09/04 01:20:35;;;;;;;9.10;8.30;;;;;;;16.85;67.70;102625.94;5060131;28;20059;-66
2023/09/04 01:23:00;;;;;;;8.93;8.00;;;;;;;16.80;67.74;102617.44;5052208;28;20111;-66
2023/09/04 01:25:37;;;;;;;8.73;7.82;;;;;;;16.79;67.96;102612.09;5070206;28;20034;-66
2023/09/04 01:28:50;;;;;;;8.23;7.43;;;;;;;16.87;67.84;102618.13;5070192;28;20067;-66
2023/09/04 01:31:31;;;;;;;8.25;7.45;;;;;;;16.74;67.92;102614.78;5046734;28;20029;-66
2023/09/04 01:34:05;;;;;;;9.13;8.23;;;;;;;16.67;67.69;102620.53;5048667;28;20573;-66
2023/09/04 01:36:32;;;;;;;8.23;7.53;;;;;;;16.59;67.76;102615.31;5051947;28;20079;-66
2023/09/04 01:38:58;;;;;;;8.57;7.78;;;;;;;16.61;67.47;102627.97;5071593;28;20032;-66
2023/09/04 01:41:23;;;;;;;10.30;7.63;;;;;;;16.62;67.55;102618.47;5069786;28;20104;-66
2023/09/04 01:43:49;;;;;;;8.55;7.75;;;;;;;16.57;67.63;102611.91;5060704;28;20476;-67
2023/09/04 01:46:14;;;;;;;8.50;7.80;;;;;;;16.57;67.37;102617.53;5056282;28;20040;-67
2023/09/04 01:48:39;;;;;;;8.93;7.97;;;;;;;16.54;67.85;102623.63;5056099;28;20045;-66
2023/09/04 01:51:05;;;;;;;9.23;8.30;;;;;;;16.48;67.94;102624.63;5059233;28;20086;-66
2023/09/04 01:53:30;;;;;;;8.70;7.80;;;;;;;16.50;67.88;102616.81;5071179;28;20036;-66
2023/09/04 01:55:56;;;;;;;9.38;8.48;;;;;;;16.43;67.72;102609.41;5053149;28;20067;-66
2023/09/04 01:58:21;;;;;;;9.20;8.30;;;;;;;16.47;67.67;102618.19;5071950;28;20029;-67
2023/09/04 02:00:47;;;;;;;9.20;8.00;;;;;;;16.44;67.90;102616.72;5067970;28;20028;-67
2023/09/04 02:03:13;;;;;;;8.88;7.65;;;;;;;16.35;67.91;102612.63;5061890;28;20403;-67
2023/09/04 02:05:39;;;;;;;7.97;7.28;;;;;;;16.35;67.79;102609.81;5049506;28;20033;-67
2023/09/04 02:08:07;;;;;;;9.10;8.25;;;;;;;16.34;67.94;102608.09;5054454;28;20055;-66
2023/09/04 02:10:33;;;;;;;8.60;7.80;;;;;;;16.33;67.87;102603.59;5050923;28;20032;-67
2023/09/04 02:12:59;;;;;;;8.80;8.00;;;;;;;16.25;67.94;102604.00;5056062;28;20381;-66
2023/09/04 02:15:24;;;;;;;10.57;8.45;;;;;;;16.25;68.02;102604.00;5075239;28;20037;-66
2023/09/04 02:17:51;;;;;;;8.80;7.95;;;;;;;16.22;68.04;102595.22;5050915;28;20060;-67
2023/09/04 02:20:17;;;;;;;9.10;8.30;;;;;;;16.24;68.15;102599.50;5056185;28;20107;-67
2023/09/04 02:22:43;;;;;;;8.82;8.02;;;;;;;16.20;68.17;102590.75;5058847;28;20535;-67
2023/09/04 02:25:09;;;;;;;9.15;8.25;;;;;;;16.23;68.14;102589.41;5070010;28;20047;-67
2023/09/04 02:27:34;;;;;;;8.50;7.80;;;;;;;16.24;67.78;102582.69;5065373;28;20164;-67
2023/09/04 02:30:02;;;;;;;9.48;8.60;;;;;;;16.22;68.17;102584.88;5056745;28;20423;-67
2023/09/04 02:32:28;;;;;;;8.85;8.00;;;;;;;16.17;68.01;102585.63;5050760;28;20053;-67
2023/09/04 02:34:53;;;;;;;9.85;8.75;;;;;;;16.17;68.25;102590.38;5052428;28;20484;-68
2023/09/04 02:37:18;;;;;;;10.88;8.55;;;;;;;16.12;68.16;102579.94;5059923;28;20036;-67
2023/09/04 02:39:44;;;;;;;9.98;9.07;;;;;;;16.09;68.44;102586.00;5055153;28;20036;-67
2023/09/04 02:42:09;;;;;;;9.95;9.02;;;;;;;16.07;68.41;102581.75;5057003;28;20051;-67
2023/09/04 02:44:34;;;;;;;9.05;8.25;;;;;;;16.06;68.70;102580.06;5057691;28;20094;-68
2023/09/04 02:47:00;;;;;;;9.77;8.88;;;;;;;16.05;68.84;102578.38;5070325;28;20038;-67
2023/09/04 02:49:25;;;;;;;10.93;9.85;;;;;;;16.06;68.70;102586.50;5070876;28;20037;-68
2023/09/04 02:51:50;;;;;;;10.13;9.10;;;;;;;16.04;68.72;102576.66;5071519;28;20051;-67
2023/09/04 02:54:16;;;;;;;9.85;8.85;;;;;;;16.01;68.63;102579.97;5066721;28;20025;-68
2023/09/04 02:56:41;;;;;;;9.40;8.55;;;;;;;16.04;68.72;102573.88;5055582;28;20551;-68
2023/09/04 02:59:06;;;;;;;9.32;8.43;;;;;;;16.03;68.52;102575.78;5066949;28;20114;-68
2023/09/04 03:01:34;;;;;;;10.23;9.15;;;;;;;15.94;68.69;102569.72;5058087;28;20040;-68
2023/09/04 03:03:59;;;;;;;9.43;8.55;;;;;;;16.00;68.43;102567.91;5053753;28;20033;-68
2023/09/04 03:06:24;;;;;;;9.55;8.57;;;;;;;15.89;68.37;102571.59;5083131;28;20390;-67
2023/09/04 03:08:50;;;;;;;10.00;8.93;;;;;;;15.93;68.78;102568.03;5058362;28;20448;-67
2023/09/04 03:11:15;;;;;;;9.75;8.85;;;;;;;15.91;68.64;102563.78;5058855;28;20040;-68
2023/09/04 03:13:41;;;;;;;10.88;9.00;;;;;;;15.92;68.73;102560.75;5069765;28;20828;-68
2023/09/04 03:16:06;;;;;;;10.07;9.18;;;;;;;15.91;68.92;102559.03;5068908;28;20165;-67
2023/09/04 03:18:33;;;;;;;10.55;9.15;;;;;;;15.95;68.73;102548.16;5066730;28;20057;-67
2023/09/04 03:20:58;;;;;;;10.35;9.35;;;;;;;15.86;68.96;102542.13;5061984;28;20025;-67
2023/09/04 03:23:24;;;;;;;10.02;9.00;;;;;;;15.91;68.87;102550.63;5054563;28;20611;-67
2023/09/04 03:25:49;;;;;;;10.25;9.30;;;;;;;15.91;69.41;102546.97;5054067;28;20036;-67
2023/09/04 03:28:14;;;;;;;10.32;9.32;;;;;;;15.89;69.45;102541.63;5053997;28;20032;-67
2023/09/04 03:30:39;;;;;;;13.02;9.80;;;;;;;16.01;69.46;102546.34;5062324;28;22133;-67
2023/09/04 03:33:05;;;;;;;10.82;9.73;;;;;;;16.05;69.60;102547.56;5068119;28;20036;-68
2023/09/04 03:35:30;;;;;;;11.32;10.32;;;;;;;15.99;69.73;102549.38;5058169;28;20058;-67
2023/09/04 03:37:55;;;;;;;12.85;10.57;;;;;;;16.05;69.46;102550.34;5066918;28;20029;-68
2023/09/04 03:40:22;;;;;;;12.23;10.68;;;;;;;15.94;69.39;102552.09;5056147;28;20511;-67
2023/09/04 03:42:48;;;;;;;12.30;11.15;;;;;;;15.93;69.37;102556.00;5053995;28;20477;-68
2023/09/04 03:45:13;;;;;;;12.02;10.70;;;;;;;15.89;69.89;102549.19;5053661;28;20121;-68
2023/09/04 03:47:39;;;;;;;13.32;10.57;;;;;;;15.89;69.65;102551.97;5052712;28;20036;-68
2023/09/04 03:50:07;;;;;;;13.05;11.32;;;;;;;15.94;69.45;102547.31;5053574;28;20045;-68
2023/09/04 03:52:33;;;;;;;12.43;11.23;;;;;;;15.90;69.59;102546.13;5053612;28;20029;-67
2023/09/04 03:54:58;;;;;;;11.65;10.57;;;;;;;15.84;69.81;102544.34;5084321;28;20040;-67
2023/09/04 03:57:25;;;;;;;12.65;11.18;;;;;;;15.81;69.30;102544.81;5072846;28;20025;-67
2023/09/04 03:59:53;;;;;;;12.25;10.95;;;;;;;15.84;69.34;102532.28;5072574;28;20166;-67
2023/09/04 04:02:18;;;;;;;11.70;10.60;;;;;;;15.80;69.58;102531.94;5072652;28;20117;-68
2023/09/04 04:04:44;;;;;;;12.15;10.57;;;;;;;15.79;69.32;102533.00;5073383;28;20056;-68
2023/09/04 04:07:09;;;;;;;13.48;10.73;;;;;;;15.81;69.18;102536.41;5072747;28;20059;-67
2023/09/04 04:09:34;;;;;;;11.75;10.63;;;;;;;15.83;68.99;102541.75;5086326;28;20387;-67
2023/09/04 04:12:00;;;;;;;11.65;10.45;;;;;;;15.74;68.89;102534.84;5088320;28;20024;-67
2023/09/04 04:14:25;;;;;;;12.38;11.18;;;;;;;15.66;69.20;102538.88;5071202;28;20025;-67
2023/09/04 04:16:51;;;;;;;12.48;11.13;;;;;;;15.61;68.90;102539.59;5072263;28;20051;-65
2023/09/04 04:19:16;;;;;;;12.65;11.20;;;;;;;15.60;68.94;102539.81;5072858;28;20055;-66
2023/09/04 04:21:41;;;;;;;11.55;10.45;;;;;;;15.60;68.96;102543.50;5072052;28;20058;-67
2023/09/04 04:24:07;;;;;;;12.57;11.18;;;;;;;15.63;68.89;102539.34;5071814;28;20036;-66
2023/09/04 04:26:32;;;;;;;12.68;11.38;;;;;;;15.56;69.42;102538.59;5072668;28;20051;-67
2023/09/04 04:28:57;;;;;;;11.45;10.35;;;;;;;15.58;69.01;102537.28;5072113;28;20024;-66
2023/09/04 04:31:23;;;;;;;12.30;11.15;;;;;;;15.55;68.75;102534.13;5074090;28;20071;-66
2023/09/04 04:33:48;;;;;;;12.55;11.35;;;;;;;15.55;69.05;102536.91;5075482;28;20008;-66
2023/09/04 04:36:13;;;;;;;12.80;11.35;;;;;;;15.52;68.85;102537.41;5058962;28;20077;-66
2023/09/04 04:38:39;;;;;;;12.95;11.55;;;;;;;15.49;68.88;102538.75;5052517;28;20033;-67
2023/09/04 04:41:04;;;;;;;11.93;10.75;;;;;;;15.44;69.05;102533.91;5052576;28;20492;-67
2023/09/04 04:43:30;;;;;;;13.93;10.98;;;;;;;15.43;69.08;102534.13;5051567;28;20051;-66
2023/09/04 04:45:55;;;;;;;15.32;12.10;;;;;;;15.44;68.97;102533.91;5076705;28;20032;-66
2023/09/04 04:48:21;;;;;;;13.90;11.20;;;;;;;15.42;68.92;102533.28;5092313;28;20035;-67
2023/09/04 04:50:46;;;;;;;13.77;12.27;;;;;;;15.45;69.21;102527.22;5090407;28;20020;-66
2023/09/04 04:53:11;;;;;;;12.95;11.65;;;;;;;15.37;69.67;102533.19;5065996;28;20605;-66
2023/09/04 04:55:36;;;;;;;13.27;11.75;;;;;;;15.40;69.42;102529.88;5072265;28;20032;-67
2023/09/04 04:58:02;;;;;;;12.85;11.65;;;;;;;15.39;69.89;102525.38;5070394;28;20036;-66
2023/09/04 05:00:27;;;;;;;14.07;12.52;;;;;;;15.36;69.89;102527.81;5050656;28;20032;-66
2023/09/04 05:02:53;;;;;;;13.50;12.05;;;;;;;15.39;69.72;102522.56;5057094;28;20033;-66
2023/09/04 05:05:18;;;;;;;13.27;11.82;;;;;;;15.31;69.81;102520.16;5050814;28;20032;-66
2023/09/04 05:07:43;;;;;;;15.60;12.43;;;;;;;15.33;69.87;102520.78;5051740;28;20033;-67
2023/09/04 05:10:09;;;;;;;13.55;12.25;;;;;;;15.38;69.87;102526.47;5052125;28;20021;-66
2023/09/04 05:12:35;;;;;;;13.65;12.25;;;;;;;15.30;70.18;102529.66;5051207;28;20116;-66
2023/09/04 05:15:00;;;;;;;12.77;11.52;;;;;;;15.29;70.43;102536.34;5051905;28;20441;-67
2023/09/04 05:17:25;;;;;;;13.35;11.88;;;;;;;15.32;70.25;102541.44;5089307;28;20039;-66
2023/09/04 05:19:51;;;;;;;12.73;11.52;;;;;;;15.30;70.25;102540.84;5066072;28;20036;-66
2023/09/04 05:22:16;;;;;;;13.18;11.85;;;;;;;15.32;70.49;102537.78;5063168;28;20527;-67
2023/09/04 05:24:42;;;;;;;13.02;11.68;;;;;;;15.32;70.45;102535.84;5053675;28;20028;-67
2023/09/04 05:27:07;;;;;;;13.77;12.25;;;;;;;15.37;70.73;102530.38;5070907;28;20032;-66
2023/09/04 05:29:33;;;;;;;15.60;12.63;;;;;;;15.36;70.71;102528.66;5068791;28;20032;-66
2023/09/04 05:31:58;;;;;;;13.43;12.02;;;;;;;15.37;70.63;102538.78;5070594;28;20029;-65
2023/09/04 05:34:23;;;;;;;13.75;12.25;;;;;;;15.34;70.97;102530.00;5071637;28;20040;-66
2023/09/04 05:36:49;;;;;;;14.77;12.90;;;;;;;15.33;71.21;102534.75;5070944;28;20503;-66
2023/09/04 05:39:14;;;;;;;14.20;12.80;;;;;;;15.32;71.50;102533.03;5070012;28;20029;-66
2023/09/04 05:41:39;;;;;;;16.30;13.23;;;;;;;15.32;71.55;102538.63;5075490;28;20117;-66
2023/09/04 05:44:05;;;;;;;13.93;12.57;;;;;;;15.43;71.47;102540.56;5058563;28;20857;-67
2023/09/04 05:46:31;;;;;;;14.32;12.95;;;;;;;15.40;71.99;102543.00;5048919;28;20115;-67
2023/09/04 05:48:56;;;;;;;14.93;13.43;;;;;;;15.41;72.19;102536.34;5079521;28;20132;-66
2023/09/04 05:51:21;;;;;;;14.88;13.43;;;;;;;15.44;72.31;102538.63;5090747;28;20028;-67
2023/09/04 05:53:47;;;;;;;14.93;13.40;;;;;;;15.48;72.36;102534.25;5090009;28;20082;-65
2023/09/04 05:56:13;;;;;;;15.98;14.30;;;;;;;15.50;72.58;102534.88;5090601;28;20467;-66
2023/09/04 05:58:46;;;;;;;15.25;13.85;;;;;;;15.52;72.63;102537.41;5083284;28;20024;-66
2023/09/04 06:01:12;;;;;;;10.65;9.52;;;;;;;15.77;77.41;102534.38;5049542;28;20090;-66
2023/09/04 06:03:39;;;;;;;7.82;7.13;;;;;;;15.95;78.38;102543.44;5079235;28;20027;-66
2023/09/04 06:06:05;;;;;;;11.25;10.15;;;;;;;16.09;77.96;102540.34;5090650;28;20020;-66
2023/09/04 06:08:31;;;;;;;15.50;12.63;;;;;;;16.14;73.44;102535.69;5061824;28;20044;-66
2023/09/04 06:10:56;;;;;;;8.40;7.53;;;;;;;16.40;76.23;102534.25;5057553;28;20032;-67
2023/09/04 06:13:21;;;;;;;11.43;9.20;;;;;;;16.57;75.85;102541.81;5067381;28;20503;-66
2023/09/04 06:15:50;;;;;;;11.23;9.32;;;;;;;16.69;75.19;102537.00;5046031;28;20029;-67
2023/09/04 06:18:16;;;;;;;12.07;10.63;;;;;;;16.76;73.79;102537.72;5060425;28;20059;-67
2023/09/04 06:20:41;;;;;;;14.05;10.23;;;;;;;16.89;73.75;102537.38;5067374;28;20387;-66
2023/09/04 06:23:06;;;;;;;11.50;10.40;;;;;;;16.98;72.75;102543.44;5067032;28;20021;-66
2023/09/04 06:25:32;;;;;;;10.30;9.30;;;;;;;17.07;72.28;102544.69;5063208;28;20423;-67
2023/09/04 06:27:58;;;;;;;12.00;10.73;;;;;;;17.09;71.49;102539.66;5052002;28;20033;-67
2023/09/04 06:30:23;;;;;;;11.85;9.82;;;;;;;17.20;71.67;102545.44;5056690;28;20542;-67
2023/09/04 06:32:48;;;;;;;11.13;10.02;;;;;;;17.30;71.36;102543.66;5046442;28;20083;-67
2023/09/04 06:35:14;;;;;;;11.07;10.07;;;;;;;17.42;71.40;102541.59;5045034;28;20048;-68
2023/09/04 06:37:40;;;;;;;11.30;10.20;;;;;;;17.47;70.89;102539.97;5066032;28;20028;-67
2023/09/04 06:40:06;;;;;;;10.70;9.60;;;;;;;17.52;70.60;102540.03;5068131;28;20029;-67
2023/09/04 06:42:31;;;;;;;11.63;10.43;;;;;;;17.52;69.96;102538.06;5057159;28;20028;-67
2023/09/04 06:44:57;;;;;;;12.45;11.15;;;;;;;17.54;69.73;102537.84;5051363;28;20025;-68
2023/09/04 06:47:22;;;;;;;12.38;11.18;;;;;;;17.55;69.90;102534.75;5058944;28;20025;-68
2023/09/04 06:49:47;;;;;;;11.73;10.63;;;;;;;17.57;69.67;102538.16;5050788;28;20115;-66
2023/09/04 06:52:13;;;;;;;11.40;10.20;;;;;;;17.67;69.87;102531.81;5050936;28;20032;-68
2023/09/04 06:54:38;;;;;;;10.85;9.77;;;;;;;17.73;70.13;102538.38;5064361;28;20090;-68
2023/09/04 06:57:04;;;;;;;10.90;9.80;;;;;;;17.79;69.78;102535.38;5069559;28;20029;-69
2023/09/04 06:59:29;;;;;;;10.32;9.23;;;;;;;17.83;69.26;102525.34;5051762;28;20032;-69
2023/09/04 07:01:54;;;;;;;12.00;10.77;;;;;;;17.85;69.69;102525.09;5076790;28;20032;-69
2023/09/04 07:04:20;;;;;;;15.13;10.82;;;;;;;17.87;69.37;102526.50;5089786;28;20122;-69
2023/09/04 07:06:45;;;;;;;12.00;10.80;;;;;;;17.91;69.60;102526.84;5059587;28;20028;-68
2023/09/04 07:09:10;;;;;;;11.80;10.60;;;;;;;17.95;69.47;102532.78;5060318;28;20016;-68
2023/09/04 07:11:36;;;;;;;14.38;10.75;;;;;;;17.94;69.55;102522.66;5060366;28;20179;-68
2023/09/04 07:14:02;;;;;;;10.98;9.82;;;;;;;18.03;69.60;102523.88;5060046;28;20021;-68
2023/09/04 07:16:27;;;;;;;11.90;10.82;;;;;;;18.10;69.62;102521.72;5058927;28;20483;-68
2023/09/04 07:18:52;;;;;;;11.48;10.27;;;;;;;18.17;69.33;102525.19;5063865;28;20056;-70
2023/09/04 07:21:18;;;;;;;10.65;9.32;;;;;;;18.27;69.68;102519.66;5061491;28;20055;-69
2023/09/04 07:23:43;;;;;;;11.38;10.15;;;;;;;18.38;69.51;102521.47;5055382;28;20414;-69
2023/09/04 07:26:08;;;;;;;12.05;10.88;;;;;;;18.38;69.58;102515.84;5061504;28;20039;-69
2023/09/04 07:28:34;;;;;;;11.50;10.32;;;;;;;18.50;69.56;102518.50;5063623;28;20040;-68
2023/09/04 07:31:15;;;;;;;11.18;10.07;;;;;;;18.47;69.23;102512.56;5058417;28;20025;-69
2023/09/04 07:33:41;;;;;;;12.23;10.00;;;;;;;18.54;69.10;102524.44;5082431;28;20024;-69
2023/09/04 07:36:06;;;;;;;12.95;10.70;;;;;;;18.56;68.85;102527.84;5068073;28;20298;-69
2023/09/04 07:38:31;;;;;;;13.45;10.75;;;;;;;18.65;69.43;102520.63;5072149;28;20052;-69
2023/09/04 07:41:01;;;;;;;12.18;10.73;;;;;;;18.75;69.15;102520.75;5069747;28;20032;-69
2023/09/04 07:43:26;;;;;;;11.48;10.27;;;;;;;18.77;69.21;102526.94;5073168;28;20532;-69
2023/09/04 07:45:52;;;;;;;11.68;10.48;;;;;;;18.84;68.98;102519.13;5071936;28;20112;-69
2023/09/04 07:48:18;;;;;;;12.20;9.88;;;;;;;18.95;68.64;102528.50;5067020;28;20036;-69
2023/09/04 07:50:43;;;;;;;12.27;10.65;;;;;;;19.01;68.70;102515.31;5072795;28;20124;-69
2023/09/04 07:53:09;;;;;;;12.18;10.90;;;;;;;18.98;68.83;102515.84;5072567;28;20028;-69
2023/09/04 07:55:34;;;;;;;10.32;9.27;;;;;;;19.07;67.61;102509.47;5061949;28;20044;-69
2023/09/04 07:57:59;;;;;;;9.48;8.48;;;;;;;19.15;68.34;102499.66;5053051;28;20043;-69
2023/09/04 08:00:25;;;;;;;11.85;9.38;;;;;;;19.21;68.42;102498.56;5052284;28;20033;-69
2023/09/04 08:02:51;;;;;;;9.82;8.82;;;;;;;19.28;67.90;102501.16;5052534;28;20049;-69
2023/09/04 08:05:16;;;;;;;10.38;9.23;;;;;;;19.40;67.93;102507.41;5052955;28;20102;-69
2023/09/04 08:07:41;;;;;;;12.27;10.43;;;;;;;19.48;67.95;102503.25;5051743;28;20469;-69
2023/09/04 08:10:07;;;;;;;10.23;8.38;;;;;;;19.53;67.53;102504.13;5059896;28;20142;-69
2023/09/04 08:12:32;;;;;;;9.65;7.28;;;;;;;19.64;67.02;102502.22;5058589;28;20068;-69
2023/09/04 08:14:58;;;;;;;10.90;9.27;;;;;;;19.75;67.30;102509.59;5077034;28;20475;-69
2023/09/04 08:17:25;;;;;;;10.93;9.93;;;;;;;19.76;66.61;102497.22;5092860;28;20395;-69
2023/09/04 08:19:51;;;;;;;10.30;9.05;;;;;;;19.82;66.13;102504.56;5092286;28;20051;-69
2023/09/04 08:22:17;;;;;;;11.82;10.35;;;;;;;19.83;66.04;102509.06;5092192;28;20130;-69
2023/09/04 08:24:42;;;;;;;11.15;10.05;;;;;;;19.90;65.44;102491.91;5092436;28;20127;-69
2023/09/04 08:27:08;;;;;;;8.50;7.45;;;;;;;20.00;65.91;102506.06;5092771;28;20028;-69
2023/09/04 08:29:33;;;;;;;11.45;10.25;;;;;;;20.03;65.59;102499.84;5071899;28;20389;-69
2023/09/04 08:31:58;;;;;;;11.10;8.77;;;;;;;20.14;64.94;102505.53;5070236;28;20028;-69
2023/09/04 08:34:24;;;;;;;10.20;8.70;;;;;;;20.18;64.13;102501.88;5071103;28;20045;-69
2023/09/04 08:36:49;;;;;;;9.15;8.32;;;;;;;20.27;63.88;102497.38;5071435;28;20036;-69
2023/09/04 08:39:15;;;;;;;9.85;8.95;;;;;;;20.33;63.91;102490.63;5072125;28;20029;-69
2023/09/04 08:41:41;;;;;;;9.10;8.20;;;;;;;20.39;62.92;102499.94;5071319;28;20561;-69
2023/09/04 08:44:08;;;;;;;9.60;8.32;;;;;;;20.43;62.74;102494.56;5072078;28;20038;-69
2023/09/04 08:46:34;;;;;;;9.57;8.55;;;;;;;20.51;62.04;102496.88;5071618;28;20024;-69
2023/09/04 08:49:01;;;;;;;8.20;7.07;;;;;;;20.63;62.67;102499.44;5074834;28;20046;-69
2023/09/04 08:51:27;;;;;;;9.75;7.15;;;;;;;20.78;62.83;102499.44;5071870;28;20549;-69
2023/09/04 08:53:52;;;;;;;8.38;7.47;;;;;;;20.80;61.53;102495.22;5071783;28;20032;-68
2023/09/04 08:56:19;;;;;;;9.23;6.80;;;;;;;20.89;61.59;102498.31;5071114;28;20037;-68
2023/09/04 08:58:44;;;;;;;7.47;6.72;;;;;;;20.93;61.38;102498.59;5071497;28;20029;-68
2023/09/04 09:01:13;;;;;;;8.63;7.65;;;;;;;20.95;61.09;102491.53;5071696;28;20456;-68
2023/09/04 09:03:40;;;;;;;8.85;6.70;;;;;;;21.04;60.61;102500.28;5082620;28;20391;-68
2023/09/04 09:06:06;;;;;;;8.82;6.88;;;;;;;21.12;59.97;102488.41;5081033;28;20097;-68
2023/09/04 09:08:33;;;;;;;7.07;5.28;;;;;;;21.22;60.58;102484.69;5085514;28;20064;-68
2023/09/04 09:10:58;;;;;;;5.88;5.22;;;;;;;21.32;59.51;102479.91;5068390;28;20028;-68
2023/09/04 09:13:23;;;;;;;6.75;5.30;;;;;;;21.50;60.17;102480.44;5091662;28;20425;-68
2023/09/04 09:15:49;;;;;;;6.50;5.47;;;;;;;21.60;58.84;102479.56;5091436;28;20310;-68
2023/09/04 09:18:33;;;;;;;6.35;5.53;;;;;;;21.66;60.37;102484.06;5090942;28;20811;-68
2023/09/04 09:20:59;;;;;;;6.35;5.40;;;;;;;21.73;59.09;102484.56;5091750;28;20055;-68
2023/09/04 09:23:24;;;;;;;5.20;4.70;;;;;;;21.76;58.52;102486.81;5091626;28;20764;-69
2023/09/04 09:25:54;;;;;;;6.15;5.00;;;;;;;21.85;58.38;102492.72;5081811;28;20037;-69
2023/09/04 09:28:20;;;;;;;5.75;4.63;;;;;;;21.87;58.07;102490.47;5055417;28;20041;-69
2023/09/04 09:30:46;;;;;;;5.38;4.50;;;;;;;21.93;56.77;102489.28;5050340;28;20052;-69
2023/09/04 09:33:17;;;;;;;6.15;4.53;;;;;;;21.99;57.00;102493.78;5051272;28;20029;-69
2023/09/04 09:35:44;;;;;;;5.93;4.50;;;;;;;22.03;56.70;102495.75;5050988;28;20370;-68
2023/09/04 09:38:09;;;;;;;5.38;4.47;;;;;;;22.09;57.11;102495.72;5050452;28;20028;-69
2023/09/04 09:40:36;;;;;;;4.57;4.07;;;;;;;22.11;56.06;102490.63;5050733;28;20519;-68
2023/09/04 09:43:01;;;;;;;4.50;4.03;;;;;;;22.16;56.71;102490.59;5057912;28;20021;-69
2023/09/04 09:45:31;;;;;;;7.05;4.13;;;;;;;22.11;56.70;102491.47;5081150;28;20073;-68
2023/09/04 09:47:57;;;;;;;4.88;4.25;;;;;;;22.13;55.50;102482.69;5090969;28;20792;-68
2023/09/04 09:50:24;;;;;;;6.90;3.95;;;;;;;22.18;55.63;102488.34;5090649;28;20023;-68
2023/09/04 09:52:58;;;;;;;6.18;3.63;;;;;;;22.30;56.67;102489.66;5089910;28;20034;-68
2023/09/04 09:55:24;;;;;;;6.25;3.83;;;;;;;22.26;55.93;102477.25;5091033;28;20020;-68
2023/09/04 09:57:52;;;;;;;8.65;3.45;;;;;;;22.48;57.34;102471.16;5090640;28;20067;-69
2023/09/04 10:00:18;;;;;;;6.03;3.53;;;;;;;22.48;56.45;102467.50;5066717;28;20757;-68
2023/09/04 10:02:43;;;;;;;5.97;4.03;;;;;;;22.58;55.23;102466.56;5050086;28;20488;-68
2023/09/04 10:05:09;;;;;;;4.35;3.50;;;;;;;22.58;55.07;102455.25;5050789;28;20059;-68
2023/09/04 10:07:37;;;;;;;4.32;3.53;;;;;;;22.53;55.70;102461.78;5049625;28;20052;-68
2023/09/04 10:10:05;;;;;;;6.05;3.75;;;;;;;22.55;54.47;102457.50;5050619;28;20029;-68
2023/09/04 10:12:55;;;;;;;4.20;3.80;;;;;;;22.66;56.54;102449.78;5050646;28;20029;-68
2023/09/04 10:15:25;;;;;;;6.60;3.90;;;;;;;22.74;56.05;102457.63;5051031;28;20020;-68
2023/09/04 10:17:58;;;;;;;5.95;4.10;;;;;;;22.63;54.32;102458.00;5049910;28;20056;-69
2023/09/04 10:20:25;;;;;;;4.18;3.70;;;;;;;22.70;53.07;102455.69;5049855;28;20060;-68
2023/09/04 10:23:11;;;;;;;5.72;3.53;;;;;;;22.73;55.06;102458.78;5050400;28;20067;-68
2023/09/04 10:25:43;;;;;;;4.40;3.67;;;;;;;22.79;53.36;102463.28;5050044;28;20071;-68
2023/09/04 10:28:31;;;;;;;3.22;3.00;;;;;;;22.87;54.74;102456.13;5049023;28;20566;-69
2023/09/04 10:30:59;;;;;;;4.50;3.38;;;;;;;22.95;53.27;102448.97;5080030;28;20063;-69
2023/09/04 10:33:26;;;;;;;3.50;3.20;;;;;;;22.93;51.79;102439.94;5064148;28;20469;-68
2023/09/04 10:35:54;;;;;;;3.97;3.10;;;;;;;22.96;50.78;102445.03;5089497;28;20031;-68
2023/09/04 10:38:20;;;;;;;5.05;3.13;;;;;;;23.06;51.07;102436.41;5090456;28;20035;-68
2023/09/04 10:40:46;;;;;;;6.40;3.20;;;;;;;23.05;50.91;102437.56;5087609;28;20115;-69
2023/09/04 10:43:11;;;;;;;7.47;3.22;;;;;;;23.13;52.03;102427.56;5089606;28;20115;-68
2023/09/04 10:45:37;;;;;;;4.25;3.70;;;;;;;23.20;52.79;102426.06;5090005;28;20035;-68
2023/09/04 10:48:03;;;;;;;3.20;2.90;;;;;;;23.28;52.29;102418.88;5080741;28;20044;-68
2023/09/04 10:50:39;;;;;;;4.88;3.22;;;;;;;23.31;52.17;102420.28;5065881;28;20082;-68
2023/09/04 10:53:06;;;;;;;3.85;2.88;;;;;;;23.34;49.29;102423.34;5050207;28;20025;-69
2023/09/04 10:55:33;;;;;;;3.30;2.70;;;;;;;23.32;48.84;102421.97;5049068;28;20029;-69
2023/09/04 10:58:04;;;;;;;3.28;2.95;;;;;;;23.31;48.33;102420.28;5050058;28;20029;-68
2023/09/04 11:00:40;;;;;;;5.35;2.90;;;;;;;23.35;49.60;102418.53;5050068;28;20060;-67
2023/09/04 11:03:18;;;;;;;4.57;2.80;;;;;;;23.43;50.04;102420.69;5090438;28;20480;-67
2023/09/04 11:06:02;;;;;;;3.03;2.83;;;;;;;23.41;49.97;102403.13;5074651;28;20036;-67
2023/09/04 11:08:32;;;;;;;3.35;2.60;;;;;;;23.49;48.67;102408.97;5053991;28;20037;-68
2023/09/04 11:11:03;;;;;;;7.45;2.90;;;;;;;23.57;49.22;102403.78;5053080;28;20036;-68
2023/09/04 11:13:29;;;;;;;3.30;2.85;;;;;;;23.64;49.36;102401.44;5053692;28;20048;-68
2023/09/04 11:15:55;;;;;;;4.05;2.80;;;;;;;23.59;48.19;102401.50;5054331;28;20104;-68
2023/09/04 11:18:21;;;;;;;5.60;3.03;;;;;;;23.59;49.24;102396.69;5071340;28;20059;-68